Mc Clellan Airfield
KMCC : now visible

Airfield :











YOU CAN JOIN US ON...

 
LOGIN :

Register | Disclaimer

   EN    FR    IT 

 









Legend :    VFR   Marginal VFR   IFR   Intensive IFR   Very Intensive IFR
Visi :
Ceiling :
>= 8 km
>= 3000ft
5 to 8 km
1000 to 3000 ft
1500m to 5 km
500 to 1000 ft
800 to 1500m
200 to 500 ft
< 800m
< 200 ft
Symbols :   Thunderstorms  Fog  Heavy snow  Heavy precipitations  Wind > 20 kt






- Airport Elevation : 77 ft


KMCC - Mc Clellan

CURRENT METAR :
  • 291935Z AUTO 04007KT 10SM SCT027 BKN055 09/04 A2983 RMK AO2

EXPIRED METARs :
  • 291915Z AUTO 07005KT 10SM FEW055 09/03 A2983 RMK AO2
  • 291855Z AUTO 10008KT 10SM SCT055 09/03 A2984 RMK AO2
  • 291835Z AUTO 13006KT 10SM FEW044 FEW050 SCT055 09/03 A2984 RMK AO2
  • 291815Z AUTO 13008KT 10SM BKN044 BKN050 09/04 A2983 RMK AO2
  • 291755Z AUTO 14006KT 10SM OVC044 08/04 A2983 RMK AO2
  • 291735Z AUTO 16005G10KT 10SM OVC046 08/04 A2984 RMK AO2
  • 291715Z AUTO 16007KT 10SM OVC047 08/04 A2983 RMK AO2
  • 291655Z AUTO 15009KT 10SM BKN049 08/04 A2982 RMK AO2

TAF KMCC
Valid from the 29 at 18:00 until the 30 at 18:00 UTC


291725Z 2918/3018 VRB05KT P6SM BKN035
FM292200 02010KT P6SM VCSH OVC040
FM300600 34013G22KT P6SM FEW250
KZOA FIR / North America



MET'MAP, your aeronautical weather chart ! - Copyright ORBIFLY December 2007 - Disclaimer

ORBIFLY MET'MAP TEAM :

Programming & Development : Alexandra Zaïnal
Original concept : Baudouin d'Aumeries
Technical & hardware support : Manuel Goepfert
Assistance : Marc-Olivier Méhu




SOURCES & CREDITS :

   NOAA       Earth
Advisory